Terminal Aerodrome Forecast
Issued by NWS

Home | Current Version | Previous Version | Text Only | Print | Product List | Glossary On
Versions: 1 2 3 4 5 6 7 8 9 10 11 12 13 14
154
FTUS42 KTAE 131725
TAFDHN
TAF
KDHN 131725Z 1318/1418 35011G22KT P6SM SKC
     FM132300 02005KT P6SM SKC
     FM141500 09007KT P6SM SKC=

USA.gov is the U.S. government's official web portal to all federal, state and local government web resources and services.